createdAt,value
2023-02-07T00:01:08.830Z,98529.72
2023-02-07T00:03:36.343Z,98515.47
2023-02-07T00:06:10.303Z,98520.94
2023-02-07T00:08:38.546Z,98526.25
2023-02-07T00:11:08.017Z,98522.75
2023-02-07T00:13:36.165Z,98515.81
2023-02-07T00:16:04.385Z,98504.06
2023-02-07T00:18:32.297Z,98501.41
2023-02-07T00:21:00.889Z,98509.81
2023-02-07T00:23:30.340Z,98511.53
2023-02-07T00:25:59.047Z,98509.81
2023-02-07T00:28:26.974Z,98515.69
2023-02-07T00:31:04.343Z,98531.06
2023-02-07T00:33:32.394Z,98518.25
2023-02-07T00:36:00.680Z,98503.84
2023-02-07T00:38:29.835Z,98514.97
2023-02-07T00:40:57.407Z,98526.00
2023-02-07T00:43:30.032Z,98533.00
2023-02-07T00:45:57.609Z,98527.97
2023-02-07T00:48:25.128Z,98526.44
2023-02-07T00:50:52.747Z,98527.63
2023-02-07T00:53:20.256Z,98526.16
2023-02-07T00:55:49.145Z,98525.50
2023-02-07T00:58:16.804Z,98513.84
2023-02-07T01:00:44.485Z,98518.31
2023-02-07T01:03:12.033Z,98503.06
2023-02-07T01:05:40.236Z,98492.81
2023-02-07T01:08:07.817Z,98513.38
2023-02-07T01:10:35.950Z,98520.31
2023-02-07T01:13:04.833Z,98529.72
2023-02-07T01:15:32.412Z,98524.66
2023-02-07T01:17:59.950Z,98535.72
2023-02-07T01:20:29.803Z,98549.47
2023-02-07T01:22:57.402Z,98550.38
2023-02-07T01:25:24.897Z,98553.81
2023-02-07T01:27:53.564Z,98563.19
2023-02-07T01:30:22.487Z,98576.81
2023-02-07T01:32:50.328Z,98581.78
2023-02-07T01:35:18.170Z,98580.75
2023-02-07T01:37:45.790Z,98600.25
2023-02-07T01:40:14.065Z,98594.41
2023-02-07T01:42:41.597Z,98595.53
2023-02-07T01:45:24.097Z,98579.63
2023-02-07T01:47:55.280Z,98561.06
2023-02-07T01:50:23.706Z,98557.72
2023-02-07T01:52:51.686Z,98566.22
2023-02-07T01:55:23.765Z,98577.38
2023-02-07T01:57:51.593Z,98566.06
2023-02-07T02:00:19.510Z,98549.88
2023-02-07T02:02:47.244Z,98546.53
2023-02-07T02:05:17.072Z,98541.41
2023-02-07T02:07:44.610Z,98532.00
2023-02-07T02:10:15.296Z,98531.13
2023-02-07T02:12:57.089Z,98524.41
2023-02-07T02:15:34.381Z,98525.59
2023-02-07T02:18:21.790Z,98532.84
2023-02-07T02:21:20.733Z,98531.38
2023-02-07T02:24:08.938Z,98537.34
2023-02-07T02:26:48.065Z,98532.31
2023-02-07T02:29:46.564Z,98535.06
2023-02-07T02:32:54.637Z,98525.88
2023-02-07T02:35:31.150Z,98526.81
2023-02-07T02:38:05.051Z,98532.88
2023-02-07T02:40:41.262Z,98524.63
2023-02-07T02:43:14.460Z,98531.03
2023-02-07T02:45:46.635Z,98533.91
2023-02-07T02:48:16.752Z,98535.84
2023-02-07T02:50:47.302Z,98539.34
2023-02-07T02:53:15.338Z,98543.56
2023-02-07T02:56:11.209Z,98544.38
2023-02-07T02:58:52.493Z,98545.28
2023-02-07T03:01:28.335Z,98546.91
2023-02-07T03:04:14.598Z,98550.84
2023-02-07T03:06:58.290Z,98546.69
2023-02-07T03:09:36.536Z,98544.19
2023-02-07T03:12:15.286Z,98549.25
2023-02-07T03:14:53.733Z,98546.78
2023-02-07T03:17:27.052Z,98536.09
2023-02-07T03:20:04.363Z,98537.81
2023-02-07T03:22:34.394Z,98542.72
2023-02-07T03:25:04.184Z,98542.41
2023-02-07T03:27:33.826Z,98541.47
2023-02-07T03:30:06.154Z,98550.66
2023-02-07T03:32:38.004Z,98549.38
2023-02-07T03:35:12.292Z,98549.16
2023-02-07T03:37:43.446Z,98560.22
2023-02-07T03:40:12.672Z,98555.03
2023-02-07T03:42:45.184Z,98549.75
2023-02-07T03:45:17.114Z,98554.78
2023-02-07T03:47:44.681Z,98543.47
2023-02-07T03:50:14.413Z,98551.75
2023-02-07T03:52:42.143Z,98555.06
2023-02-07T03:55:10.356Z,98544.91
2023-02-07T03:57:37.913Z,98540.16
2023-02-07T04:00:06.781Z,98528.59
2023-02-07T04:02:34.637Z,98515.03
2023-02-07T04:05:02.123Z,98511.38
2023-02-07T04:07:31.297Z,98497.59
2023-02-07T04:09:58.785Z,98509.53
2023-02-07T04:12:32.616Z,98512.94
2023-02-07T04:15:00.178Z,98522.91
2023-02-07T04:17:30.056Z,98522.78
2023-02-07T04:19:58.651Z,98513.59
2023-02-07T04:22:26.169Z,98522.22
2023-02-07T04:24:55.097Z,98525.72
2023-02-07T04:27:22.651Z,98525.78
2023-02-07T04:29:50.319Z,98524.16
2023-02-07T04:32:18.167Z,98511.47
2023-02-07T04:34:45.732Z,98510.88
2023-02-07T04:37:13.264Z,98510.16
2023-02-07T04:39:40.819Z,98504.16
2023-02-07T04:42:09.734Z,98503.38
2023-02-07T04:44:37.253Z,98487.16
2023-02-07T04:47:04.806Z,98481.13
2023-02-07T04:49:34.302Z,98488.63
2023-02-07T04:52:02.196Z,98480.78
2023-02-07T04:54:29.772Z,98495.88
2023-02-07T04:56:57.329Z,98484.47
2023-02-07T04:59:26.204Z,98495.03
2023-02-07T05:01:53.732Z,98500.84
2023-02-07T05:04:21.374Z,98509.25
2023-02-07T05:06:49.380Z,98505.91
2023-02-07T05:09:17.121Z,98507.66
2023-02-07T05:11:44.632Z,98510.25
2023-02-07T05:14:12.207Z,98505.03
2023-02-07T05:16:41.308Z,98521.03
2023-02-07T05:19:08.880Z,98529.53
2023-02-07T05:21:36.418Z,98541.38
2023-02-07T05:24:04.216Z,98531.06
2023-02-07T05:26:31.926Z,98539.34
2023-02-07T05:28:59.443Z,98534.09
2023-02-07T05:31:47.245Z,98525.47
2023-02-07T05:34:15.287Z,98518.88
2023-02-07T05:36:42.846Z,98520.72
2023-02-07T05:39:10.375Z,98513.97
2023-02-07T05:41:37.941Z,98519.75
2023-02-07T05:44:06.954Z,98507.81
2023-02-07T05:46:34.517Z,98513.81
2023-02-07T05:49:02.008Z,98509.69
2023-02-07T05:51:31.168Z,98512.34
2023-02-07T05:53:58.735Z,98516.50
2023-02-07T05:56:26.288Z,98512.25
2023-02-07T05:58:54.546Z,98501.38
2023-02-07T06:01:22.084Z,98493.97
2023-02-07T06:03:49.762Z,98499.19
2023-02-07T06:06:17.330Z,98498.53
2023-02-07T06:08:46.159Z,98511.41
2023-02-07T06:11:13.694Z,98513.09
2023-02-07T06:13:41.338Z,98513.31
2023-02-07T06:16:10.617Z,98522.78
2023-02-07T06:18:38.277Z,98525.50
2023-02-07T06:21:06.227Z,98522.28
2023-02-07T06:23:33.817Z,98530.81
2023-02-07T06:26:02.727Z,98528.03
2023-02-07T06:28:30.309Z,98523.69
2023-02-07T06:30:57.990Z,98533.78
2023-02-07T06:33:25.618Z,98532.81
2023-02-07T06:35:55.718Z,98530.81
2023-02-07T06:38:23.494Z,98526.59
2023-02-07T06:40:51.182Z,98524.16
2023-02-07T06:43:20.024Z,98517.25
2023-02-07T06:45:47.528Z,98530.69
2023-02-07T06:48:15.253Z,98525.81
2023-02-07T06:50:42.764Z,98542.16
2023-02-07T06:53:10.290Z,98551.47
2023-02-07T06:55:40.716Z,98548.13
2023-02-07T06:58:09.021Z,98555.16
2023-02-07T07:00:38.131Z,98549.63
2023-02-07T07:03:06.002Z,98560.97
2023-02-07T07:05:34.093Z,98563.59
2023-02-07T07:08:01.661Z,98562.75
2023-02-07T07:10:29.251Z,98557.75
2023-02-07T07:12:56.807Z,98561.75
2023-02-07T07:15:24.365Z,98556.34
2023-02-07T07:17:53.230Z,98553.47
2023-02-07T07:20:20.841Z,98555.66
2023-02-07T07:22:49.280Z,98555.22
2023-02-07T07:25:16.873Z,98544.53
2023-02-07T07:27:44.569Z,98543.50
2023-02-07T07:30:13.380Z,98550.19
2023-02-07T07:32:40.999Z,98555.94
2023-02-07T07:35:10.298Z,98547.94
2023-02-07T07:37:38.188Z,98551.41
2023-02-07T07:40:06.561Z,98548.06
2023-02-07T07:42:35.374Z,98544.59
2023-02-07T07:45:02.886Z,98551.06
2023-02-07T07:47:30.716Z,98548.81
2023-02-07T07:49:58.201Z,98562.31
2023-02-07T07:52:27.034Z,98565.78
2023-02-07T07:54:54.589Z,98562.50
2023-02-07T07:57:22.197Z,98565.75
2023-02-07T07:59:49.707Z,98577.63
2023-02-07T08:02:17.231Z,98575.47
2023-02-07T08:04:44.743Z,98587.56
2023-02-07T08:07:12.360Z,98588.56
2023-02-07T08:09:41.249Z,98600.88
2023-02-07T08:12:08.885Z,98604.66
2023-02-07T08:14:36.529Z,98606.69
2023-02-07T08:17:04.186Z,98610.41
2023-02-07T08:19:31.710Z,98610.41
2023-02-07T08:21:59.258Z,98613.53
2023-02-07T08:24:28.479Z,98618.44
2023-02-07T08:26:57.461Z,98618.13
2023-02-07T08:29:25.085Z,98610.28
2023-02-07T08:31:52.806Z,98603.16
2023-02-07T08:34:24.112Z,98604.41
2023-02-07T08:36:51.653Z,98607.28
2023-02-07T08:39:19.208Z,98608.41
2023-02-07T08:41:46.752Z,98596.72
2023-02-07T08:44:15.691Z,98604.72
2023-02-07T08:46:43.607Z,98600.81
2023-02-07T08:49:11.125Z,98597.06
2023-02-07T08:51:38.673Z,98593.59
2023-02-07T08:54:06.350Z,98588.81
2023-02-07T08:56:35.017Z,98586.63
2023-02-07T08:59:02.671Z,98576.97
2023-02-07T09:01:31.647Z,98590.31
2023-02-07T09:03:59.241Z,98585.34
2023-02-07T09:06:27.502Z,98578.75
2023-02-07T09:08:55.620Z,98575.31
2023-02-07T09:11:23.628Z,98568.25
2023-02-07T09:13:51.208Z,98576.56
2023-02-07T09:16:18.900Z,98566.28
2023-02-07T09:18:47.896Z,98572.25
2023-02-07T09:21:16.060Z,98580.56
2023-02-07T09:23:43.605Z,98579.59
2023-02-07T09:26:18.057Z,98579.41
2023-02-07T09:28:45.759Z,98583.38
2023-02-07T09:31:14.956Z,98581.53
2023-02-07T09:33:43.273Z,98581.31
2023-02-07T09:36:20.297Z,98571.81
2023-02-07T09:38:48.337Z,98574.47
2023-02-07T09:41:22.813Z,98570.16
2023-02-07T09:44:00.882Z,98583.59
2023-02-07T09:46:33.264Z,98582.09
2023-02-07T09:49:06.207Z,98588.22
2023-02-07T09:51:36.864Z,98583.03
2023-02-07T09:54:07.358Z,98581.41
2023-02-07T09:56:36.507Z,98577.78
2023-02-07T09:59:16.853Z,98581.53
2023-02-07T10:01:49.348Z,98588.41
2023-02-07T10:04:30.517Z,98587.66
2023-02-07T10:07:00.840Z,98593.88
2023-02-07T10:09:30.883Z,98598.94
2023-02-07T10:12:06.181Z,98588.16
2023-02-07T10:15:01.602Z,98587.88
2023-02-07T10:17:44.159Z,98588.69
2023-02-07T10:20:27.450Z,98595.78
2023-02-07T10:23:07.689Z,98600.38
2023-02-07T10:25:45.257Z,98603.13
2023-02-07T10:28:54.226Z,98599.22
2023-02-07T10:31:25.254Z,98591.00
2023-02-07T10:33:59.139Z,98594.78
2023-02-07T10:36:29.664Z,98592.06
2023-02-07T10:39:10.016Z,98591.59
2023-02-07T10:41:39.793Z,98592.03
2023-02-07T10:44:10.639Z,98602.72
2023-02-07T10:46:39.553Z,98595.78
2023-02-07T10:49:07.242Z,98593.72
2023-02-07T10:51:36.989Z,98595.91
2023-02-07T10:54:10.748Z,98604.03
2023-02-07T10:56:43.122Z,98607.34
2023-02-07T10:59:32.905Z,98610.34
2023-02-07T11:02:01.152Z,98606.72
2023-02-07T11:04:36.958Z,98604.97
2023-02-07T11:07:06.353Z,98606.00
2023-02-07T11:09:37.758Z,98604.28
2023-02-07T11:12:16.605Z,98605.44
2023-02-07T11:15:01.324Z,98598.91
2023-02-07T11:17:30.216Z,98610.44
2023-02-07T11:20:03.193Z,98607.22
2023-02-07T11:22:31.019Z,98609.09
2023-02-07T11:25:04.922Z,98611.84
2023-02-07T11:27:38.501Z,98615.91
2023-02-07T11:30:10.548Z,98607.53
2023-02-07T11:32:39.517Z,98598.59
2023-02-07T11:35:09.684Z,98598.94
2023-02-07T11:37:38.905Z,98598.94
2023-02-07T11:40:24.943Z,98593.09
2023-02-07T11:43:01.986Z,98595.41
2023-02-07T11:45:31.540Z,98586.34
2023-02-07T11:48:00.294Z,98598.78
2023-02-07T11:50:33.634Z,98591.22
2023-02-07T11:53:02.228Z,98590.53
2023-02-07T11:55:35.042Z,98595.28
2023-02-07T11:58:03.785Z,98594.72
2023-02-07T12:00:37.042Z,98597.44
2023-02-07T12:03:09.055Z,98594.47
2023-02-07T12:05:40.881Z,98593.50
2023-02-07T12:08:15.219Z,98587.53
2023-02-07T12:10:49.208Z,98585.94
2023-02-07T12:13:21.695Z,98585.69
2023-02-07T12:15:54.051Z,98592.41
2023-02-07T12:18:29.542Z,98586.03
2023-02-07T12:21:02.590Z,98570.19
2023-02-07T12:23:42.795Z,98575.00
2023-02-07T12:26:21.663Z,98579.13
2023-02-07T12:29:12.141Z,98581.25
2023-02-07T12:31:51.978Z,98572.91
2023-02-07T12:34:28.280Z,98578.56
2023-02-07T12:37:04.434Z,98575.72
2023-02-07T12:39:38.002Z,98567.56
2023-02-07T12:57:11.855Z,98566.53
2023-02-07T13:10:14.049Z,98562.97
2023-02-07T13:13:05.751Z,98566.25
2023-02-07T13:15:57.015Z,98561.63
2023-02-07T13:18:33.235Z,98567.59
2023-02-07T13:21:13.804Z,98554.75
2023-02-07T13:23:48.531Z,98554.69
2023-02-07T13:26:20.783Z,98548.34
2023-02-07T13:28:54.166Z,98551.56
2023-02-07T13:31:28.579Z,98556.84
2023-02-07T13:33:56.613Z,98552.69
2023-02-07T13:36:33.278Z,98556.84
2023-02-07T13:39:11.377Z,98561.97
2023-02-07T13:41:50.069Z,98560.09
2023-02-07T13:44:26.136Z,98554.91
2023-02-07T13:47:20.938Z,98562.06
2023-02-07T13:49:55.253Z,98563.34
2023-02-07T13:52:31.567Z,98562.31
2023-02-07T13:55:13.956Z,98558.31
2023-02-07T13:58:02.142Z,98564.22
2023-02-07T14:00:32.719Z,98564.00
2023-02-07T14:03:04.603Z,98561.94
2023-02-07T14:05:35.559Z,98560.28
2023-02-07T14:08:07.760Z,98559.63
2023-02-07T14:10:51.776Z,98555.97
2023-02-07T14:13:35.100Z,98559.38
2023-02-07T14:16:06.799Z,98558.66
2023-02-07T14:18:45.641Z,98551.72
2023-02-07T14:21:39.973Z,98556.28
2023-02-07T14:24:36.122Z,98566.63
2023-02-07T14:27:05.758Z,98568.56
2023-02-07T14:30:24.405Z,98562.81
2023-02-07T14:33:13.871Z,98570.84
2023-02-07T14:36:05.292Z,98567.47
2023-02-07T14:38:38.543Z,98581.59
2023-02-07T14:41:11.905Z,98579.38
2023-02-07T14:43:54.342Z,98584.16
2023-02-07T14:46:34.342Z,98580.31
2023-02-07T14:49:05.429Z,98577.88
2023-02-07T14:51:43.289Z,98571.06
2023-02-07T14:54:18.978Z,98569.44
2023-02-07T14:56:54.787Z,98568.84
2023-02-07T14:59:29.669Z,98566.81
2023-02-07T15:01:57.722Z,98572.53
2023-02-07T15:04:25.627Z,98573.09
2023-02-07T15:06:55.125Z,98573.25
2023-02-07T15:09:27.077Z,98572.50
2023-02-07T15:12:08.730Z,98581.00
2023-02-07T15:14:41.570Z,98581.72
2023-02-07T15:17:09.257Z,98585.25
2023-02-07T15:19:39.892Z,98586.34
2023-02-07T15:22:23.970Z,98594.44
2023-02-07T15:24:56.659Z,98588.72
2023-02-07T15:27:27.232Z,98594.88
2023-02-07T15:29:57.502Z,98600.28
2023-02-07T15:32:29.903Z,98589.50
2023-02-07T15:34:57.937Z,98584.59
2023-02-07T15:37:27.942Z,98596.00
2023-02-07T15:39:57.867Z,98588.78
2023-02-07T15:42:25.693Z,98597.03
2023-02-07T15:44:54.811Z,98598.53
2023-02-07T15:47:36.025Z,98597.22
2023-02-07T15:50:05.468Z,98600.88
2023-02-07T15:52:36.795Z,98600.06
2023-02-07T15:55:17.741Z,98599.31
2023-02-07T15:57:46.320Z,98606.38
2023-02-07T16:00:18.879Z,98603.22
2023-02-07T16:02:55.146Z,98601.97
2023-02-07T16:05:24.853Z,98602.53
2023-02-07T16:07:55.934Z,98601.28
2023-02-07T16:10:35.134Z,98612.00
2023-02-07T16:13:04.038Z,98615.91
2023-02-07T16:15:33.959Z,98620.44
2023-02-07T16:18:03.012Z,98618.13
2023-02-07T16:20:33.644Z,98620.09
2023-02-07T16:23:07.797Z,98622.91
2023-02-07T16:25:37.439Z,98624.88
2023-02-07T16:28:10.976Z,98617.56
2023-02-07T16:30:41.122Z,98622.13
2023-02-07T16:33:12.557Z,98631.72
2023-02-07T16:35:40.259Z,98625.00
2023-02-07T16:38:09.226Z,98629.38
2023-02-07T16:40:36.984Z,98626.13
2023-02-07T16:43:07.680Z,98628.81
2023-02-07T16:45:40.037Z,98630.69
2023-02-07T16:48:15.861Z,98629.00
2023-02-07T16:50:43.683Z,98624.94
2023-02-07T16:53:12.794Z,98621.63
2023-02-07T16:55:40.669Z,98628.56
2023-02-07T16:58:08.680Z,98622.81
2023-02-07T17:00:36.373Z,98618.59
2023-02-07T17:03:04.601Z,98624.63
2023-02-07T17:05:32.285Z,98622.22
2023-02-07T17:07:59.883Z,98619.69
2023-02-07T17:10:31.940Z,98625.78
2023-02-07T17:12:59.556Z,98628.19
2023-02-07T17:15:27.209Z,98626.53
2023-02-07T17:17:59.170Z,98633.47
2023-02-07T17:20:28.878Z,98629.31
2023-02-07T17:22:57.058Z,98635.75
2023-02-07T17:25:28.791Z,98631.72
2023-02-07T17:27:57.296Z,98630.19
2023-02-07T17:30:27.348Z,98638.13
2023-02-07T17:32:56.257Z,98627.31
2023-02-07T17:35:24.649Z,98630.19
2023-02-07T17:37:53.622Z,98631.22
2023-02-07T17:40:30.146Z,98633.94
2023-02-07T17:42:58.278Z,98629.56
2023-02-07T17:45:26.367Z,98625.94
2023-02-07T17:47:56.510Z,98627.31
2023-02-07T17:50:27.903Z,98630.19
2023-02-07T17:52:55.453Z,98634.94
2023-02-07T17:55:23.116Z,98639.53
2023-02-07T17:57:52.078Z,98632.81
2023-02-07T18:00:22.977Z,98630.28
2023-02-07T18:02:50.693Z,98632.81
2023-02-07T18:05:19.411Z,98635.44
2023-02-07T18:07:48.562Z,98640.56
2023-02-07T18:10:19.433Z,98640.69
2023-02-07T18:12:47.478Z,98637.50
2023-02-07T18:15:17.752Z,98644.47
2023-02-07T18:17:47.908Z,98643.34
2023-02-07T18:20:19.070Z,98644.13
2023-02-07T18:22:47.384Z,98638.28
2023-02-07T18:25:15.299Z,98632.53
2023-02-07T18:27:45.791Z,98631.00
2023-02-07T18:30:14.427Z,98631.78
2023-02-07T18:32:43.590Z,98634.88
2023-02-07T18:35:11.340Z,98637.47
2023-02-07T18:37:39.500Z,98642.94
2023-02-07T18:40:08.147Z,98635.72
2023-02-07T18:42:35.742Z,98632.38
2023-02-07T18:45:03.594Z,98632.19
2023-02-07T18:47:32.822Z,98624.63
2023-02-07T18:50:01.822Z,98628.09
2023-02-07T18:52:29.590Z,98627.13
2023-02-07T18:54:57.185Z,98623.63
2023-02-07T18:57:24.740Z,98627.94
2023-02-07T18:59:52.350Z,98631.56
2023-02-07T19:02:19.904Z,98627.34
2023-02-07T19:04:47.963Z,98631.56
2023-02-07T19:07:16.952Z,98627.34
2023-02-07T19:09:44.648Z,98633.22
2023-02-07T19:12:12.177Z,98627.94
2023-02-07T19:14:39.729Z,98628.72
2023-02-07T19:17:07.240Z,98622.66
2023-02-07T19:19:34.763Z,98626.06
2023-02-07T19:22:02.350Z,98620.09
2023-02-07T19:24:31.376Z,98625.53
2023-02-07T19:26:59.848Z,98625.44
2023-02-07T19:29:29.861Z,98627.06
2023-02-07T19:31:58.627Z,98627.94
2023-02-07T19:34:26.249Z,98628.88
2023-02-07T19:36:53.846Z,98626.28
2023-02-07T19:39:21.517Z,98625.44
2023-02-07T19:41:50.617Z,98613.50
2023-02-07T19:44:18.223Z,98616.13
2023-02-07T19:46:46.245Z,98615.16
2023-02-07T19:49:15.375Z,98621.91
2023-02-07T19:51:43.170Z,98615.09
2023-02-07T19:54:11.148Z,98611.16
2023-02-07T19:56:38.872Z,98610.50
2023-02-07T19:59:08.691Z,98605.47
2023-02-07T20:01:38.156Z,98607.94
2023-02-07T20:04:06.652Z,98599.63
2023-02-07T20:06:35.780Z,98599.63
2023-02-07T20:09:06.224Z,98608.16
2023-02-07T20:11:34.626Z,98605.69
2023-02-07T20:14:03.946Z,98600.88
2023-02-07T20:16:35.910Z,98606.28
2023-02-07T20:19:05.665Z,98601.28
2023-02-07T20:21:33.785Z,98596.00
2023-02-07T20:24:01.691Z,98594.09
2023-02-07T20:26:31.731Z,98594.00
2023-02-07T20:29:00.290Z,98597.44
2023-02-07T20:31:29.002Z,98596.00
2023-02-07T20:33:58.101Z,98596.16
2023-02-07T20:36:26.416Z,98600.47
2023-02-07T20:38:54.466Z,98601.28
2023-02-07T20:41:29.958Z,98598.94
2023-02-07T20:43:59.521Z,98602.53
2023-02-07T20:46:28.652Z,98611.28
2023-02-07T20:48:59.194Z,98606.41
2023-02-07T20:51:27.006Z,98603.94
2023-02-07T20:53:57.140Z,98608.34
2023-02-07T20:56:25.236Z,98605.00
2023-02-07T20:58:54.242Z,98603.34
2023-02-07T21:01:25.109Z,98604.31
2023-02-07T21:03:54.530Z,98608.09
2023-02-07T21:06:24.375Z,98618.66
2023-02-07T21:08:58.591Z,98628.25
2023-02-07T21:11:26.576Z,98626.72
2023-02-07T21:13:54.412Z,98625.16
2023-02-07T21:16:22.400Z,98628.66
2023-02-07T21:18:50.555Z,98632.75
2023-02-07T21:21:19.220Z,98627.63
2023-02-07T21:23:48.110Z,98629.94
2023-02-07T21:26:16.659Z,98631.59
2023-02-07T21:28:44.488Z,98623.25
2023-02-07T21:31:15.727Z,98634.34
2023-02-07T21:33:43.909Z,98634.34
2023-02-07T21:36:13.535Z,98630.31
2023-02-07T21:38:44.675Z,98632.09
2023-02-07T21:41:15.068Z,98626.13
2023-02-07T21:43:42.611Z,98624.41
2023-02-07T21:46:12.563Z,98629.63
2023-02-07T21:48:41.655Z,98628.13
2023-02-07T21:51:11.292Z,98632.63
2023-02-07T21:53:39.645Z,98637.63
2023-02-07T21:56:09.485Z,98633.44
2023-02-07T21:58:38.396Z,98636.84
2023-02-07T22:01:08.189Z,98640.19
2023-02-07T22:03:36.372Z,98652.16
2023-02-07T22:06:04.044Z,98648.88
2023-02-07T22:08:31.559Z,98643.84
2023-02-07T22:11:03.965Z,98645.56
2023-02-07T22:13:31.814Z,98636.34
2023-02-07T22:16:00.701Z,98639.06
2023-02-07T22:18:28.619Z,98639.06
2023-02-07T22:20:56.884Z,98638.06
2023-02-07T22:23:24.380Z,98635.44
2023-02-07T22:25:53.212Z,98633.25
2023-02-07T22:28:20.784Z,98631.19
2023-02-07T22:30:50.155Z,98633.09
2023-02-07T22:33:19.190Z,98626.38
2023-02-07T22:35:46.849Z,98623.88
2023-02-07T22:38:14.722Z,98631.31
2023-02-07T22:40:43.253Z,98631.94
2023-02-07T22:43:13.922Z,98624.91
2023-02-07T22:45:45.844Z,98616.19
2023-02-07T22:48:15.040Z,98621.25
2023-02-07T22:50:44.360Z,98623.00
2023-02-07T22:53:12.445Z,98617.88
2023-02-07T22:55:40.905Z,98622.16
2023-02-07T22:58:08.554Z,98612.03
2023-02-07T23:00:36.115Z,98622.47
2023-02-07T23:03:03.683Z,98607.91
2023-02-07T23:05:31.277Z,98617.16
2023-02-07T23:08:00.110Z,98617.88
2023-02-07T23:10:27.664Z,98611.72
2023-02-07T23:12:55.178Z,98605.69
2023-02-07T23:15:23.247Z,98609.41
2023-02-07T23:17:50.872Z,98600.31
2023-02-07T23:20:18.669Z,98602.97
2023-02-07T23:22:46.303Z,98603.66
2023-02-07T23:25:16.914Z,98610.38
2023-02-07T23:27:44.857Z,98607.91
2023-02-07T23:30:14.109Z,98600.16
2023-02-07T23:32:41.810Z,98611.19
2023-02-07T23:35:09.950Z,98606.31
2023-02-07T23:37:37.659Z,98604.19
2023-02-07T23:40:05.956Z,98601.63
2023-02-07T23:42:34.808Z,98605.91
2023-02-07T23:45:02.282Z,98605.72
2023-02-07T23:47:29.802Z,98605.63
2023-02-07T23:49:57.320Z,98594.31
2023-02-07T23:52:24.832Z,98595.03
2023-02-07T23:54:52.489Z,98598.25
2023-02-07T23:57:20.095Z,98595.56
2023-02-07T23:59:49.126Z,98592.88
